sensor_id;sensor_type;location;lat;lon;timestamp;pressure;altitude;pressure_sealevel;temperature;humidity
70589;BME280;58152;49.202;18.744;2023-03-22T00:00:11;97233.25;;;10.05;62.48
70589;BME280;58152;49.202;18.744;2023-03-22T00:02:39;97245.44;;;10.06;62.23
70589;BME280;58152;49.202;18.744;2023-03-22T00:05:05;97245.44;;;10.06;62.75
70589;BME280;58152;49.202;18.744;2023-03-22T00:07:31;97236.31;;;9.96;62.81
70589;BME280;58152;49.202;18.744;2023-03-22T00:09:56;97227.84;;;9.89;62.87
70589;BME280;58152;49.202;18.744;2023-03-22T00:12:22;97232.31;;;9.87;62.73
70589;BME280;58152;49.202;18.744;2023-03-22T00:14:47;97244.69;;;9.83;62.72
70589;BME280;58152;49.202;18.744;2023-03-22T00:17:13;97254.41;;;9.81;63.14
70589;BME280;58152;49.202;18.744;2023-03-22T00:19:39;97240.50;;;9.79;63.14
70589;BME280;58152;49.202;18.744;2023-03-22T00:22:06;97263.03;;;9.83;62.95
70589;BME280;58152;49.202;18.744;2023-03-22T00:24:41;97245.91;;;9.76;63.22
70589;BME280;58152;49.202;18.744;2023-03-22T00:27:11;97263.31;;;9.77;63.13
70589;BME280;58152;49.202;18.744;2023-03-22T00:29:40;97250.47;;;9.71;63.06
70589;BME280;58152;49.202;18.744;2023-03-22T00:32:06;97258.41;;;9.70;63.30
70589;BME280;58152;49.202;18.744;2023-03-22T00:34:32;97255.69;;;9.71;62.82
70589;BME280;58152;49.202;18.744;2023-03-22T00:36:57;97255.56;;;9.74;62.97
70589;BME280;58152;49.202;18.744;2023-03-22T00:39:23;97253.88;;;9.73;63.31
70589;BME280;58152;49.202;18.744;2023-03-22T00:41:49;97259.13;;;9.73;63.22
70589;BME280;58152;49.202;18.744;2023-03-22T00:44:15;97255.78;;;9.70;62.96
70589;BME280;58152;49.202;18.744;2023-03-22T00:46:40;97257.66;;;9.66;63.21
70589;BME280;58152;49.202;18.744;2023-03-22T00:49:06;97246.34;;;9.65;63.20
70589;BME280;58152;49.202;18.744;2023-03-22T00:51:31;97251.53;;;9.67;63.40
70589;BME280;58152;49.202;18.744;2023-03-22T00:53:57;97247.34;;;9.63;63.02
70589;BME280;58152;49.202;18.744;2023-03-22T00:56:22;97238.84;;;9.58;63.39
70589;BME280;58152;49.202;18.744;2023-03-22T00:58:49;97242.34;;;9.57;62.91
70589;BME280;58152;49.202;18.744;2023-03-22T01:01:15;97248.59;;;9.54;63.33
70589;BME280;58152;49.202;18.744;2023-03-22T01:03:41;97243.34;;;9.54;63.66
70589;BME280;58152;49.202;18.744;2023-03-22T01:06:08;97246.09;;;9.51;63.25
70589;BME280;58152;49.202;18.744;2023-03-22T01:08:33;97242.69;;;9.49;63.40
70589;BME280;58152;49.202;18.744;2023-03-22T01:11:03;97259.25;;;9.50;63.58
70589;BME280;58152;49.202;18.744;2023-03-22T01:13:28;97256.56;;;9.51;63.92
70589;BME280;58152;49.202;18.744;2023-03-22T01:15:54;97247.94;;;9.49;63.43
70589;BME280;58152;49.202;18.744;2023-03-22T01:18:22;97250.78;;;9.43;63.89
70589;BME280;58152;49.202;18.744;2023-03-22T01:20:47;97237.84;;;9.40;63.63
70589;BME280;58152;49.202;18.744;2023-03-22T01:23:13;97241.38;;;9.39;63.99
70589;BME280;58152;49.202;18.744;2023-03-22T01:25:38;97230.38;;;9.31;64.10
70589;BME280;58152;49.202;18.744;2023-03-22T01:28:05;97239.94;;;9.32;64.04
70589;BME280;58152;49.202;18.744;2023-03-22T01:30:32;97241.81;;;9.28;63.52
70589;BME280;58152;49.202;18.744;2023-03-22T01:32:57;97233.25;;;9.25;64.08
70589;BME280;58152;49.202;18.744;2023-03-22T01:35:23;97223.78;;;9.22;64.25
70589;BME280;58152;49.202;18.744;2023-03-22T01:37:48;97235.22;;;9.20;64.10
70589;BME280;58152;49.202;18.744;2023-03-22T01:40:14;97225.66;;;9.19;63.86
70589;BME280;58152;49.202;18.744;2023-03-22T01:42:40;97223.22;;;9.14;63.80
70589;BME280;58152;49.202;18.744;2023-03-22T01:47:40;97210.59;;;9.03;63.78
70589;BME280;58152;49.202;18.744;2023-03-22T01:50:07;97204.91;;;8.94;63.63
70589;BME280;58152;49.202;18.744;2023-03-22T01:52:33;97217.19;;;8.91;63.95
70589;BME280;58152;49.202;18.744;2023-03-22T01:55:00;97212.25;;;8.84;63.46
70589;BME280;58152;49.202;18.744;2023-03-22T01:57:26;97205.56;;;8.77;63.61
70589;BME280;58152;49.202;18.744;2023-03-22T01:59:51;97202.41;;;8.69;63.66
70589;BME280;58152;49.202;18.744;2023-03-22T02:02:17;97208.69;;;8.64;63.70
70589;BME280;58152;49.202;18.744;2023-03-22T02:04:44;97213.13;;;8.62;64.07
70589;BME280;58152;49.202;18.744;2023-03-22T02:07:15;97218.41;;;8.61;63.49
70589;BME280;58152;49.202;18.744;2023-03-22T02:09:53;97209.97;;;8.54;63.64
70589;BME280;58152;49.202;18.744;2023-03-22T02:21:04;97208.72;;;8.41;64.21
70589;BME280;58152;49.202;18.744;2023-03-22T02:29:07;97200.59;;;8.25;63.60
70589;BME280;58152;49.202;18.744;2023-03-22T02:43:07;97209.66;;;8.17;64.72
70589;BME280;58152;49.202;18.744;2023-03-22T02:48:23;97201.19;;;8.10;64.11
70589;BME280;58152;49.202;18.744;2023-03-22T02:51:09;97204.78;;;8.07;65.01
70589;BME280;58152;49.202;18.744;2023-03-22T02:53:50;97192.78;;;8.02;65.17
70589;BME280;58152;49.202;18.744;2023-03-22T02:56:24;97208.41;;;8.03;64.48
70589;BME280;58152;49.202;18.744;2023-03-22T02:58:55;97201.59;;;7.99;64.85
70589;BME280;58152;49.202;18.744;2023-03-22T03:01:46;97206.72;;;8.02;64.52
70589;BME280;58152;49.202;18.744;2023-03-22T03:04:17;97197.28;;;7.98;65.19
70589;BME280;58152;49.202;18.744;2023-03-22T03:06:45;97212.88;;;8.00;64.84
70589;BME280;58152;49.202;18.744;2023-03-22T03:09:13;97210.44;;;7.95;64.38
70589;BME280;58152;49.202;18.744;2023-03-22T03:11:44;97191.66;;;7.85;64.64
70589;BME280;58152;49.202;18.744;2023-03-22T03:14:25;97202.19;;;7.82;64.72
70589;BME280;58152;49.202;18.744;2023-03-22T03:17:52;97203.19;;;7.80;64.21
70589;BME280;58152;49.202;18.744;2023-03-22T03:34:11;97212.53;;;7.62;65.14
70589;BME280;58152;49.202;18.744;2023-03-22T03:36:46;97217.22;;;7.52;64.39
70589;BME280;58152;49.202;18.744;2023-03-22T03:39:15;97217.34;;;7.49;64.20
70589;BME280;58152;49.202;18.744;2023-03-22T03:41:45;97214.72;;;7.49;63.97
70589;BME280;58152;49.202;18.744;2023-03-22T03:44:14;97208.00;;;7.42;64.05
70589;BME280;58152;49.202;18.744;2023-03-22T03:46:40;97213.13;;;7.45;64.79
70589;BME280;58152;49.202;18.744;2023-03-22T03:49:07;97210.75;;;7.37;64.72
70589;BME280;58152;49.202;18.744;2023-03-22T03:51:44;97221.28;;;7.36;64.16
70589;BME280;58152;49.202;18.744;2023-03-22T03:54:11;97211.97;;;7.29;63.78
70589;BME280;58152;49.202;18.744;2023-03-22T03:56:36;97218.22;;;7.23;64.31
70589;BME280;58152;49.202;18.744;2023-03-22T03:59:04;97222.72;;;7.20;64.55
70589;BME280;58152;49.202;18.744;2023-03-22T04:01:30;97215.13;;;7.12;64.26
70589;BME280;58152;49.202;18.744;2023-03-22T04:03:55;97224.59;;;7.14;65.28
70589;BME280;58152;49.202;18.744;2023-03-22T04:06:20;97227.22;;;7.14;65.24
70589;BME280;58152;49.202;18.744;2023-03-22T04:08:46;97228.94;;;7.16;65.14
70589;BME280;58152;49.202;18.744;2023-03-22T04:11:18;97239.31;;;7.17;65.10
70589;BME280;58152;49.202;18.744;2023-03-22T04:13:43;97236.78;;;7.16;65.13
70589;BME280;58152;49.202;18.744;2023-03-22T04:16:09;97237.63;;;7.16;65.23
70589;BME280;58152;49.202;18.744;2023-03-22T04:18:34;97238.38;;;7.20;65.06
70589;BME280;58152;49.202;18.744;2023-03-22T04:21:00;97226.38;;;7.14;65.27
70589;BME280;58152;49.202;18.744;2023-03-22T04:23:25;97232.56;;;7.11;65.09
70589;BME280;58152;49.202;18.744;2023-03-22T04:25:51;97237.78;;;7.11;65.11
70589;BME280;58152;49.202;18.744;2023-03-22T04:28:16;97232.59;;;7.10;65.14
70589;BME280;58152;49.202;18.744;2023-03-22T04:30:44;97238.63;;;7.12;65.14
70589;BME280;58152;49.202;18.744;2023-03-22T04:33:10;97233.56;;;7.07;65.67
70589;BME280;58152;49.202;18.744;2023-03-22T04:35:36;97226.50;;;7.09;65.30
70589;BME280;58152;49.202;18.744;2023-03-22T04:38:02;97234.19;;;7.14;65.58
70589;BME280;58152;49.202;18.744;2023-03-22T04:40:27;97223.91;;;7.09;65.93
70589;BME280;58152;49.202;18.744;2023-03-22T04:42:57;97223.81;;;7.12;65.79
70589;BME280;58152;49.202;18.744;2023-03-22T04:45:23;97217.84;;;7.09;65.36
70589;BME280;58152;49.202;18.744;2023-03-22T04:47:49;97217.06;;;7.07;65.71
70589;BME280;58152;49.202;18.744;2023-03-22T04:50:14;97226.50;;;7.11;65.72
70589;BME280;58152;49.202;18.744;2023-03-22T04:52:40;97227.28;;;7.13;65.47
70589;BME280;58152;49.202;18.744;2023-03-22T04:55:05;97225.63;;;7.10;66.16
70589;BME280;58152;49.202;18.744;2023-03-22T04:57:31;97229.19;;;7.08;66.11
70589;BME280;58152;49.202;18.744;2023-03-22T04:59:56;97232.72;;;7.05;65.64
70589;BME280;58152;49.202;18.744;2023-03-22T05:02:22;97237.88;;;7.08;65.95
70589;BME280;58152;49.202;18.744;2023-03-22T05:04:47;97241.28;;;7.10;66.18
70589;BME280;58152;49.202;18.744;2023-03-22T05:07:13;97235.25;;;7.08;65.64
70589;BME280;58152;49.202;18.744;2023-03-22T05:09:38;97239.47;;;7.12;66.39
70589;BME280;58152;49.202;18.744;2023-03-22T05:12:04;97251.56;;;7.15;66.15
70589;BME280;58152;49.202;18.744;2023-03-22T05:14:31;97238.63;;;7.12;66.48
70589;BME280;58152;49.202;18.744;2023-03-22T05:16:58;97243.78;;;7.13;66.06
70589;BME280;58152;49.202;18.744;2023-03-22T05:19:23;97249.00;;;7.13;66.27
70589;BME280;58152;49.202;18.744;2023-03-22T05:21:48;97242.06;;;7.12;66.50
70589;BME280;58152;49.202;18.744;2023-03-22T05:24:21;97243.91;;;7.10;66.42
70589;BME280;58152;49.202;18.744;2023-03-22T05:26:47;97249.97;;;7.11;66.05
70589;BME280;58152;49.202;18.744;2023-03-22T05:29:18;97252.50;;;7.12;65.93
70589;BME280;58152;49.202;18.744;2023-03-22T05:31:44;97241.44;;;7.06;66.07
70589;BME280;58152;49.202;18.744;2023-03-22T05:34:09;97250.06;;;7.08;66.81
70589;BME280;58152;49.202;18.744;2023-03-22T05:36:35;97250.22;;;7.03;67.18
70589;BME280;58152;49.202;18.744;2023-03-22T05:39:03;97251.81;;;7.07;66.25
70589;BME280;58152;49.202;18.744;2023-03-22T05:41:29;97255.28;;;7.08;66.62
70589;BME280;58152;49.202;18.744;2023-03-22T05:43:56;97250.97;;;7.07;66.84
70589;BME280;58152;49.202;18.744;2023-03-22T05:46:21;97254.44;;;7.07;66.68
70589;BME280;58152;49.202;18.744;2023-03-22T05:48:47;97255.28;;;7.08;66.61
70589;BME280;58152;49.202;18.744;2023-03-22T05:51:14;97260.44;;;7.09;66.54
70589;BME280;58152;49.202;18.744;2023-03-22T05:53:46;97261.41;;;7.07;67.13
70589;BME280;58152;49.202;18.744;2023-03-22T05:56:12;97271.63;;;7.13;66.77
70589;BME280;58152;49.202;18.744;2023-03-22T05:58:38;97272.44;;;7.15;66.70
70589;BME280;58152;49.202;18.744;2023-03-22T06:01:12;97261.25;;;7.11;66.88
70589;BME280;58152;49.202;18.744;2023-03-22T06:03:41;97261.13;;;7.14;67.16
70589;BME280;58152;49.202;18.744;2023-03-22T06:06:07;97266.16;;;7.21;66.74
70589;BME280;58152;49.202;18.744;2023-03-22T06:08:35;97265.25;;;7.22;67.03
70589;BME280;58152;49.202;18.744;2023-03-22T06:11:02;97260.81;;;7.24;67.09
70589;BME280;58152;49.202;18.744;2023-03-22T06:13:27;97262.59;;;7.23;67.06
70589;BME280;58152;49.202;18.744;2023-03-22T06:15:53;97271.22;;;7.25;67.13
70589;BME280;58152;49.202;18.744;2023-03-22T06:18:18;97271.16;;;7.27;67.05
70589;BME280;58152;49.202;18.744;2023-03-22T06:20:43;97275.47;;;7.28;66.95
70589;BME280;58152;49.202;18.744;2023-03-22T06:23:09;97281.53;;;7.30;67.33
70589;BME280;58152;49.202;18.744;2023-03-22T06:25:35;97284.00;;;7.33;67.38
70589;BME280;58152;49.202;18.744;2023-03-22T06:28:01;97280.44;;;7.35;67.34
70589;BME280;58152;49.202;18.744;2023-03-22T06:30:26;97273.53;;;7.34;67.08
70589;BME280;58152;49.202;18.744;2023-03-22T06:32:52;97281.31;;;7.36;67.37
70589;BME280;58152;49.202;18.744;2023-03-22T06:35:17;97278.63;;;7.37;67.45
70589;BME280;58152;49.202;18.744;2023-03-22T06:37:43;97272.53;;;7.38;67.18
70589;BME280;58152;49.202;18.744;2023-03-22T06:40:09;97276.84;;;7.39;67.47
70589;BME280;58152;49.202;18.744;2023-03-22T06:42:34;97279.38;;;7.41;67.25
70589;BME280;58152;49.202;18.744;2023-03-22T06:45:01;97279.38;;;7.41;67.52
70589;BME280;58152;49.202;18.744;2023-03-22T06:47:27;97271.47;;;7.44;67.18
70589;BME280;58152;49.202;18.744;2023-03-22T06:49:52;97271.31;;;7.49;67.36
70589;BME280;58152;49.202;18.744;2023-03-22T06:52:18;97279.06;;;7.50;67.96
70589;BME280;58152;49.202;18.744;2023-03-22T06:54:43;97284.19;;;7.53;67.40
70589;BME280;58152;49.202;18.744;2023-03-22T06:57:09;97284.03;;;7.58;67.85
70589;BME280;58152;49.202;18.744;2023-03-22T06:59:35;97283.06;;;7.60;67.65
70589;BME280;58152;49.202;18.744;2023-03-22T07:02:00;97278.66;;;7.62;67.77
70589;BME280;58152;49.202;18.744;2023-03-22T07:04:26;97271.63;;;7.64;67.55
70589;BME280;58152;49.202;18.744;2023-03-22T07:06:52;97275.81;;;7.69;67.82
70589;BME280;58152;49.202;18.744;2023-03-22T07:09:17;97283.56;;;7.72;67.85
70589;BME280;58152;49.202;18.744;2023-03-22T07:11:43;97276.63;;;7.71;68.04
70589;BME280;58152;49.202;18.744;2023-03-22T07:14:08;97279.88;;;7.77;67.74
70589;BME280;58152;49.202;18.744;2023-03-22T07:16:34;97288.41;;;7.82;67.77
70589;BME280;58152;49.202;18.744;2023-03-22T07:18:59;97291.84;;;7.83;67.41
70589;BME280;58152;49.202;18.744;2023-03-22T07:21:25;97292.66;;;7.85;66.98
70589;BME280;58152;49.202;18.744;2023-03-22T07:23:51;97295.19;;;7.88;67.23
70589;BME280;58152;49.202;18.744;2023-03-22T07:26:16;97288.13;;;7.90;67.35
70589;BME280;58152;49.202;18.744;2023-03-22T07:28:41;97295.06;;;7.91;66.95
70589;BME280;58152;49.202;18.744;2023-03-22T07:31:09;97287.19;;;7.93;67.21
70589;BME280;58152;49.202;18.744;2023-03-22T07:33:38;97290.66;;;7.93;67.00
70589;BME280;58152;49.202;18.744;2023-03-22T07:36:06;97284.44;;;7.96;67.02
70589;BME280;58152;49.202;18.744;2023-03-22T07:38:32;97278.38;;;7.95;67.29
70589;BME280;58152;49.202;18.744;2023-03-22T07:40:58;97273.91;;;7.99;66.72
70589;BME280;58152;49.202;18.744;2023-03-22T07:43:23;97275.53;;;8.01;66.86
70589;BME280;58152;49.202;18.744;2023-03-22T07:45:49;97276.28;;;8.05;67.28
70589;BME280;58152;49.202;18.744;2023-03-22T07:48:16;97276.25;;;8.06;66.76
70589;BME280;58152;49.202;18.744;2023-03-22T07:50:41;97273.56;;;8.08;66.98
70589;BME280;58152;49.202;18.744;2023-03-22T07:53:07;97270.94;;;8.08;66.64
70589;BME280;58152;49.202;18.744;2023-03-22T07:55:33;97275.94;;;8.14;66.84
70589;BME280;58152;49.202;18.744;2023-03-22T07:57:59;97265.47;;;8.14;66.94
70589;BME280;58152;49.202;18.744;2023-03-22T08:00:25;97274.91;;;8.18;67.04
70589;BME280;58152;49.202;18.744;2023-03-22T08:02:51;97267.06;;;8.18;66.51
70589;BME280;58152;49.202;18.744;2023-03-22T08:05:16;97266.84;;;8.24;67.04
70589;BME280;58152;49.202;18.744;2023-03-22T08:07:42;97263.28;;;8.27;66.78
70589;BME280;58152;49.202;18.744;2023-03-22T08:10:08;97270.09;;;8.31;66.87
70589;BME280;58152;49.202;18.744;2023-03-22T08:12:33;97254.41;;;8.31;66.51
70589;BME280;58152;49.202;18.744;2023-03-22T08:14:59;97253.38;;;8.35;66.75
70589;BME280;58152;49.202;18.744;2023-03-22T08:17:24;97261.13;;;8.38;66.51
70589;BME280;58152;49.202;18.744;2023-03-22T08:19:51;97258.50;;;8.38;66.92
70589;BME280;58152;49.202;18.744;2023-03-22T08:22:18;97275.69;;;8.45;67.01
70589;BME280;58152;49.202;18.744;2023-03-22T08:24:47;97274.66;;;8.49;66.27
70589;BME280;58152;49.202;18.744;2023-03-22T08:27:13;97271.94;;;8.52;66.75
70589;BME280;58152;49.202;18.744;2023-03-22T08:29:38;97264.03;;;8.54;66.37
70589;BME280;58152;49.202;18.744;2023-03-22T08:32:04;97265.66;;;8.56;66.42
70589;BME280;58152;49.202;18.744;2023-03-22T08:34:30;97269.91;;;8.59;66.11
70589;BME280;58152;49.202;18.744;2023-03-22T08:36:57;97271.59;;;8.61;66.02
70589;BME280;58152;49.202;18.744;2023-03-22T08:39:23;97274.13;;;8.63;66.26
70589;BME280;58152;49.202;18.744;2023-03-22T08:41:48;97271.50;;;8.63;66.12
70589;BME280;58152;49.202;18.744;2023-03-22T08:44:14;97279.09;;;8.69;65.66
70589;BME280;58152;49.202;18.744;2023-03-22T08:46:39;97272.97;;;8.70;66.29
70589;BME280;58152;49.202;18.744;2023-03-22T08:49:04;97259.94;;;8.69;66.01
70589;BME280;58152;49.202;18.744;2023-03-22T08:51:30;97263.31;;;8.72;66.14
70589;BME280;58152;49.202;18.744;2023-03-22T08:53:55;97269.22;;;8.77;65.61
70589;BME280;58152;49.202;18.744;2023-03-22T08:56:24;97268.16;;;8.81;66.24
70589;BME280;58152;49.202;18.744;2023-03-22T08:58:52;97269.75;;;8.85;65.54
70589;BME280;58152;49.202;18.744;2023-03-22T09:01:17;97267.06;;;8.87;65.72
70589;BME280;58152;49.202;18.744;2023-03-22T09:03:45;97269.38;;;8.95;66.14
70589;BME280;58152;49.202;18.744;2023-03-22T09:06:13;97267.25;;;9.04;65.49
70589;BME280;58152;49.202;18.744;2023-03-22T09:08:39;97267.13;;;9.07;65.75
70589;BME280;58152;49.202;18.744;2023-03-22T09:11:10;97272.00;;;9.16;65.61
70589;BME280;58152;49.202;18.744;2023-03-22T09:13:35;97266.75;;;9.16;65.38
70589;BME280;58152;49.202;18.744;2023-03-22T09:16:01;97270.03;;;9.22;65.17
70589;BME280;58152;49.202;18.744;2023-03-22T09:18:26;97270.69;;;9.27;65.00
70589;BME280;58152;49.202;18.744;2023-03-22T09:20:52;97265.47;;;9.27;65.03
70589;BME280;58152;49.202;18.744;2023-03-22T09:23:18;97265.31;;;9.30;64.96
70589;BME280;58152;49.202;18.744;2023-03-22T09:25:47;97266.78;;;9.37;64.65
70589;BME280;58152;49.202;18.744;2023-03-22T09:28:12;97262.28;;;9.40;64.89
70589;BME280;58152;49.202;18.744;2023-03-22T09:30:38;97260.41;;;9.42;64.45
70589;BME280;58152;49.202;18.744;2023-03-22T09:33:04;97259.50;;;9.43;64.31
70589;BME280;58152;49.202;18.744;2023-03-22T09:35:31;97255.00;;;9.47;64.40
70589;BME280;58152;49.202;18.744;2023-03-22T09:37:57;97266.19;;;9.51;64.47
70589;BME280;58152;49.202;18.744;2023-03-22T09:40:27;97255.72;;;9.51;65.03
70589;BME280;58152;49.202;18.744;2023-03-22T09:42:54;97253.19;;;9.49;65.13
70589;BME280;58152;49.202;18.744;2023-03-22T09:45:43;97247.75;;;9.54;65.18
70589;BME280;58152;49.202;18.744;2023-03-22T09:48:19;97258.31;;;9.71;64.87
70589;BME280;58152;49.202;18.744;2023-03-22T09:50:48;97254.66;;;9.75;64.84
70589;BME280;58152;49.202;18.744;2023-03-22T09:53:16;97250.41;;;9.73;64.06
70589;BME280;58152;49.202;18.744;2023-03-22T09:55:49;97257.16;;;9.78;64.54
70589;BME280;58152;49.202;18.744;2023-03-22T10:06:36;97238.94;;;9.75;64.28
70589;BME280;58152;49.202;18.744;2023-03-22T10:09:11;97242.16;;;9.82;64.70
70589;BME280;58152;49.202;18.744;2023-03-22T10:11:44;97221.25;;;9.80;64.03
70589;BME280;58152;49.202;18.744;2023-03-22T10:14:33;97221.91;;;9.85;63.88
70589;BME280;58152;49.202;18.744;2023-03-22T10:17:03;97222.56;;;9.90;64.24
70589;BME280;58152;49.202;18.744;2023-03-22T10:22:16;97210.00;;;9.97;63.82
70589;BME280;58152;49.202;18.744;2023-03-22T10:24:45;97225.25;;;10.08;64.38
70589;BME280;58152;49.202;18.744;2023-03-22T10:27:17;97227.44;;;10.17;64.36
70589;BME280;58152;49.202;18.744;2023-03-22T10:29:54;97221.03;;;10.24;63.10
70589;BME280;58152;49.202;18.744;2023-03-22T10:32:29;97215.66;;;10.27;63.08
70589;BME280;58152;49.202;18.744;2023-03-22T10:34:56;97210.47;;;10.26;63.36
70589;BME280;58152;49.202;18.744;2023-03-22T10:37:31;97207.44;;;10.35;63.06
70589;BME280;58152;49.202;18.744;2023-03-22T10:39:58;97218.28;;;10.46;63.28
70589;BME280;58152;49.202;18.744;2023-03-22T10:42:27;97217.28;;;10.49;63.36
70589;BME280;58152;49.202;18.744;2023-03-22T10:45:02;97213.59;;;10.53;62.78
70589;BME280;58152;49.202;18.744;2023-03-22T10:50:37;97216.19;;;10.72;62.60
70589;BME280;58152;49.202;18.744;2023-03-22T10:55:39;97208.97;;;10.77;62.43
70589;BME280;58152;49.202;18.744;2023-03-22T10:58:47;97199.94;;;10.82;62.44
70589;BME280;58152;49.202;18.744;2023-03-22T11:01:36;97206.13;;;10.99;61.99
70589;BME280;58152;49.202;18.744;2023-03-22T11:04:11;97197.56;;;11.12;62.08
70589;BME280;58152;49.202;18.744;2023-03-22T11:09:39;97191.63;;;11.26;61.39
70589;BME280;58152;49.202;18.744;2023-03-22T11:12:11;97193.94;;;11.32;61.55
70589;BME280;58152;49.202;18.744;2023-03-22T11:14:43;97189.13;;;11.40;61.64
70589;BME280;58152;49.202;18.744;2023-03-22T11:17:22;97187.91;;;11.48;61.09
70589;BME280;58152;49.202;18.744;2023-03-22T11:25:54;97188.50;;;11.87;59.90
70589;BME280;58152;49.202;18.744;2023-03-22T11:28:26;97178.72;;;11.89;60.41
70589;BME280;58152;49.202;18.744;2023-03-22T11:33:33;97173.41;;;12.07;60.99
70589;BME280;58152;49.202;18.744;2023-03-22T11:36:04;97178.38;;;12.29;60.27
70589;BME280;58152;49.202;18.744;2023-03-22T11:38:40;97171.25;;;12.46;60.13
70589;BME280;58152;49.202;18.744;2023-03-22T11:41:10;97168.50;;;12.64;60.13
70589;BME280;58152;49.202;18.744;2023-03-22T11:43:39;97175.81;;;12.75;60.63
70589;BME280;58152;49.202;18.744;2023-03-22T11:46:14;97161.91;;;12.87;60.15
70589;BME280;58152;49.202;18.744;2023-03-22T11:48:44;97168.53;;;12.94;60.00
70589;BME280;58152;49.202;18.744;2023-03-22T11:51:26;97160.84;;;13.05;60.44
70589;BME280;58152;49.202;18.744;2023-03-22T11:56:47;97149.72;;;13.16;60.25
70589;BME280;58152;49.202;18.744;2023-03-22T11:59:25;97148.13;;;13.86;59.02
70589;BME280;58152;49.202;18.744;2023-03-22T12:01:59;97144.81;;;14.11;58.01
70589;BME280;58152;49.202;18.744;2023-03-22T12:04:29;97140.06;;;14.72;56.60
70589;BME280;58152;49.202;18.744;2023-03-22T12:06:58;97144.09;;;15.17;55.85
70589;BME280;58152;49.202;18.744;2023-03-22T12:09:38;97141.38;;;15.57;54.84
70589;BME280;58152;49.202;18.744;2023-03-22T12:12:11;97135.94;;;15.86;54.48
70589;BME280;58152;49.202;18.744;2023-03-22T12:14:56;97132.91;;;16.16;54.71
70589;BME280;58152;49.202;18.744;2023-03-22T12:17:46;97135.53;;;16.29;54.17
70589;BME280;58152;49.202;18.744;2023-03-22T12:20:38;97126.47;;;16.44;52.67
70589;BME280;58152;49.202;18.744;2023-03-22T12:23:39;97120.38;;;16.91;51.20
70589;BME280;58152;49.202;18.744;2023-03-22T12:26:19;97115.78;;;17.28;50.96
70589;BME280;58152;49.202;18.744;2023-03-22T12:29:15;97111.75;;;17.58;50.59
70589;BME280;58152;49.202;18.744;2023-03-22T12:32:07;97105.28;;;17.85;49.01
70589;BME280;58152;49.202;18.744;2023-03-22T12:34:41;97108.66;;;18.09;50.85
70589;BME280;58152;49.202;18.744;2023-03-22T12:37:14;97107.22;;;18.16;49.96
70589;BME280;58152;49.202;18.744;2023-03-22T12:39:53;97108.63;;;17.64;50.19
70589;BME280;58152;49.202;18.744;2023-03-22T12:43:29;97102.38;;;17.76;48.84
70589;BME280;58152;49.202;18.744;2023-03-22T12:45:28;97089.47;;;18.17;49.38
70589;BME280;58152;49.202;18.744;2023-03-22T12:48:05;97099.31;;;18.48;48.02
70589;BME280;58152;49.202;18.744;2023-03-22T12:50:42;97086.22;;;18.79;47.60
70589;BME280;58152;49.202;18.744;2023-03-22T12:53:16;97089.84;;;18.67;47.17
70589;BME280;58152;49.202;18.744;2023-03-22T12:55:44;97088.44;;;18.40;48.41
70589;BME280;58152;49.202;18.744;2023-03-22T12:58:13;97073.59;;;18.49;47.41
70589;BME280;58152;49.202;18.744;2023-03-22T13:00:47;97079.44;;;19.07;46.34
70589;BME280;58152;49.202;18.744;2023-03-22T13:05:40;97072.97;;;18.57;47.18
70589;BME280;58152;49.202;18.744;2023-03-22T13:08:06;97075.72;;;18.00;47.66
70589;BME280;58152;49.202;18.744;2023-03-22T13:21:16;97062.56;;;18.97;46.16
70589;BME280;58152;49.202;18.744;2023-03-22T13:26:34;97049.09;;;19.92;45.12
70589;BME280;58152;49.202;18.744;2023-03-22T13:29:09;97044.56;;;20.13;43.88
70589;BME280;58152;49.202;18.744;2023-03-22T13:31:42;97042.41;;;20.57;43.15
70589;BME280;58152;49.202;18.744;2023-03-22T13:34:17;97037.50;;;21.01;41.45
70589;BME280;58152;49.202;18.744;2023-03-22T13:36:52;97028.28;;;21.52;41.45
70589;BME280;58152;49.202;18.744;2023-03-22T13:39:18;97033.56;;;22.08;41.58
70589;BME280;58152;49.202;18.744;2023-03-22T13:41:48;97034.47;;;22.63;40.75
70589;BME280;58152;49.202;18.744;2023-03-22T13:44:26;97038.22;;;23.23;39.50
70589;BME280;58152;49.202;18.744;2023-03-22T13:46:57;97033.22;;;23.54;39.67
70589;BME280;58152;49.202;18.744;2023-03-22T13:49:42;97037.28;;;23.84;34.79
70589;BME280;58152;49.202;18.744;2023-03-22T13:52:24;97039.81;;;22.45;36.07
70589;BME280;58152;49.202;18.744;2023-03-22T13:54:52;97035.19;;;21.54;39.00
70589;BME280;58152;49.202;18.744;2023-03-22T14:00:32;97024.31;;;20.70;37.90
70589;BME280;58152;49.202;18.744;2023-03-22T14:03:09;97022.19;;;21.32;38.07
70589;BME280;58152;49.202;18.744;2023-03-22T14:05:37;97027.25;;;21.06;40.13
70589;BME280;58152;49.202;18.744;2023-03-22T14:08:04;97013.66;;;20.99;40.07
70589;BME280;58152;49.202;18.744;2023-03-22T14:10:42;97013.56;;;21.48;37.86
70589;BME280;58152;49.202;18.744;2023-03-22T14:13:20;97018.22;;;21.83;37.61
70589;BME280;58152;49.202;18.744;2023-03-22T14:15:58;97006.25;;;22.15;37.14
70589;BME280;58152;49.202;18.744;2023-03-22T14:18:28;97014.78;;;21.63;35.61
70589;BME280;58152;49.202;18.744;2023-03-22T14:21:04;97014.41;;;21.48;38.31
70589;BME280;58152;49.202;18.744;2023-03-22T14:23:41;97012.91;;;21.26;37.09
70589;BME280;58152;49.202;18.744;2023-03-22T14:26:14;97013.88;;;21.25;37.33
70589;BME280;58152;49.202;18.744;2023-03-22T14:28:40;97009.47;;;20.58;38.95
70589;BME280;58152;49.202;18.744;2023-03-22T14:31:13;97011.00;;;20.61;39.30
70589;BME280;58152;49.202;18.744;2023-03-22T14:33:41;97011.97;;;20.69;38.73
70589;BME280;58152;49.202;18.744;2023-03-22T14:36:11;97004.66;;;20.62;39.07
70589;BME280;58152;49.202;18.744;2023-03-22T14:38:40;97025.72;;;20.55;39.13
70589;BME280;58152;49.202;18.744;2023-03-22T14:43:43;97016.13;;;20.23;39.32
70589;BME280;58152;49.202;18.744;2023-03-22T14:46:24;97013.28;;;20.15;38.00